sensor_id;sensor_type;location;lat;lon;timestamp;temperature;humidity
26517;DHT22;14190;51.342;6.338;2022-09-09T00:00:20;17.50;99.90
26517;DHT22;14190;51.342;6.338;2022-09-09T00:02:53;17.50;99.90
26517;DHT22;14190;51.342;6.338;2022-09-09T00:05:23;17.50;99.90
26517;DHT22;14190;51.342;6.338;2022-09-09T00:07:52;17.50;99.90
26517;DHT22;14190;51.342;6.338;2022-09-09T00:10:24;17.60;99.90
26517;DHT22;14190;51.342;6.338;2022-09-09T00:13:16;17.60;99.90
26517;DHT22;14190;51.342;6.338;2022-09-09T00:15:25;17.60;99.90
26517;DHT22;14190;51.342;6.338;2022-09-09T00:18:03;17.60;99.90
26517;DHT22;14190;51.342;6.338;2022-09-09T00:23:17;17.60;99.90
26517;DHT22;14190;51.342;6.338;2022-09-09T00:25:46;17.50;99.90
26517;DHT22;14190;51.342;6.338;2022-09-09T00:28:17;17.50;99.90
26517;DHT22;14190;51.342;6.338;2022-09-09T00:30:43;17.50;99.90
26517;DHT22;14190;51.342;6.338;2022-09-09T00:33:16;17.50;99.90
26517;DHT22;14190;51.342;6.338;2022-09-09T00:35:51;17.50;99.90
26517;DHT22;14190;51.342;6.338;2022-09-09T00:38:22;17.50;99.90
26517;DHT22;14190;51.342;6.338;2022-09-09T00:43:38;17.40;99.90
26517;DHT22;14190;51.342;6.338;2022-09-09T00:46:17;17.40;99.90
26517;DHT22;14190;51.342;6.338;2022-09-09T00:54:13;17.30;99.90
26517;DHT22;14190;51.342;6.338;2022-09-09T00:56:42;17.30;99.90
26517;DHT22;14190;51.342;6.338;2022-09-09T01:01:40;17.30;99.90
26517;DHT22;14190;51.342;6.338;2022-09-09T01:04:10;17.30;99.90
26517;DHT22;14190;51.342;6.338;2022-09-09T01:06:39;17.30;99.90
26517;DHT22;14190;51.342;6.338;2022-09-09T01:09:11;17.20;99.90
26517;DHT22;14190;51.342;6.338;2022-09-09T01:11:43;17.20;99.90
26517;DHT22;14190;51.342;6.338;2022-09-09T01:16:47;17.10;99.90
26517;DHT22;14190;51.342;6.338;2022-09-09T01:19:24;17.10;99.90
26517;DHT22;14190;51.342;6.338;2022-09-09T01:21:55;17.10;99.90
26517;DHT22;14190;51.342;6.338;2022-09-09T01:24:40;17.10;99.90
26517;DHT22;14190;51.342;6.338;2022-09-09T01:27:11;17.00;99.90
26517;DHT22;14190;51.342;6.338;2022-09-09T01:29:40;17.00;99.90
26517;DHT22;14190;51.342;6.338;2022-09-09T01:34:56;17.00;99.90
26517;DHT22;14190;51.342;6.338;2022-09-09T01:37:25;17.00;99.90
26517;DHT22;14190;51.342;6.338;2022-09-09T01:39:54;17.00;99.90
26517;DHT22;14190;51.342;6.338;2022-09-09T01:42:23;17.00;99.90
26517;DHT22;14190;51.342;6.338;2022-09-09T01:44:51;17.00;99.90
26517;DHT22;14190;51.342;6.338;2022-09-09T01:47:21;17.00;99.90
26517;DHT22;14190;51.342;6.338;2022-09-09T01:49:55;17.10;99.90
26517;DHT22;14190;51.342;6.338;2022-09-09T01:52:25;17.10;99.90
26517;DHT22;14190;51.342;6.338;2022-09-09T01:54:54;17.10;99.90
26517;DHT22;14190;51.342;6.338;2022-09-09T01:57:26;17.10;99.90
26517;DHT22;14190;51.342;6.338;2022-09-09T02:00:01;17.10;99.90
26517;DHT22;14190;51.342;6.338;2022-09-09T02:02:32;17.10;99.90
26517;DHT22;14190;51.342;6.338;2022-09-09T02:08:00;17.10;99.90
26517;DHT22;14190;51.342;6.338;2022-09-09T02:10:17;17.00;99.90
26517;DHT22;14190;51.342;6.338;2022-09-09T02:12:47;17.00;99.90
26517;DHT22;14190;51.342;6.338;2022-09-09T02:15:30;17.00;99.90
26517;DHT22;14190;51.342;6.338;2022-09-09T02:17:58;17.00;99.90
26517;DHT22;14190;51.342;6.338;2022-09-09T02:20:29;17.00;99.90
26517;DHT22;14190;51.342;6.338;2022-09-09T02:23:01;16.90;99.90
26517;DHT22;14190;51.342;6.338;2022-09-09T02:25:30;16.90;99.90
26517;DHT22;14190;51.342;6.338;2022-09-09T02:28:01;16.80;99.90
26517;DHT22;14190;51.342;6.338;2022-09-09T02:30:31;16.90;99.90
26517;DHT22;14190;51.342;6.338;2022-09-09T02:33:02;16.90;99.90
26517;DHT22;14190;51.342;6.338;2022-09-09T02:35:46;16.80;99.90
26517;DHT22;14190;51.342;6.338;2022-09-09T02:38:17;16.80;99.90
26517;DHT22;14190;51.342;6.338;2022-09-09T02:40:49;16.80;99.90
26517;DHT22;14190;51.342;6.338;2022-09-09T02:43:18;16.80;99.90
26517;DHT22;14190;51.342;6.338;2022-09-09T02:46:03;16.80;99.90
26517;DHT22;14190;51.342;6.338;2022-09-09T02:48:30;16.80;99.90
26517;DHT22;14190;51.342;6.338;2022-09-09T02:51:07;16.80;99.90
26517;DHT22;14190;51.342;6.338;2022-09-09T02:53:43;16.80;99.90
26517;DHT22;14190;51.342;6.338;2022-09-09T02:56:14;16.80;99.90
26517;DHT22;14190;51.342;6.338;2022-09-09T02:58:42;16.80;99.90
26517;DHT22;14190;51.342;6.338;2022-09-09T03:01:12;16.80;99.90
26517;DHT22;14190;51.342;6.338;2022-09-09T03:03:41;16.80;99.90
26517;DHT22;14190;51.342;6.338;2022-09-09T03:06:13;16.80;99.90
26517;DHT22;14190;51.342;6.338;2022-09-09T03:08:42;16.80;99.90
26517;DHT22;14190;51.342;6.338;2022-09-09T03:11:11;16.80;99.90
26517;DHT22;14190;51.342;6.338;2022-09-09T03:13:42;16.80;99.90
26517;DHT22;14190;51.342;6.338;2022-09-09T03:16:11;16.80;99.90
26517;DHT22;14190;51.342;6.338;2022-09-09T03:18:41;16.80;99.90
26517;DHT22;14190;51.342;6.338;2022-09-09T03:21:11;16.80;99.90
26517;DHT22;14190;51.342;6.338;2022-09-09T03:23:40;16.80;99.90
26517;DHT22;14190;51.342;6.338;2022-09-09T03:26:09;16.80;99.90
26517;DHT22;14190;51.342;6.338;2022-09-09T03:28:42;16.80;99.90
26517;DHT22;14190;51.342;6.338;2022-09-09T03:31:11;16.80;99.90
26517;DHT22;14190;51.342;6.338;2022-09-09T03:33:41;16.80;99.90
26517;DHT22;14190;51.342;6.338;2022-09-09T03:36:11;16.80;99.90
26517;DHT22;14190;51.342;6.338;2022-09-09T03:38:40;16.80;99.90
26517;DHT22;14190;51.342;6.338;2022-09-09T03:41:09;16.80;99.90
26517;DHT22;14190;51.342;6.338;2022-09-09T03:43:38;16.80;99.90
26517;DHT22;14190;51.342;6.338;2022-09-09T03:46:07;16.80;99.90
26517;DHT22;14190;51.342;6.338;2022-09-09T03:48:36;16.90;99.90
26517;DHT22;14190;51.342;6.338;2022-09-09T03:51:05;16.90;99.90
26517;DHT22;14190;51.342;6.338;2022-09-09T03:53:34;16.90;99.90
26517;DHT22;14190;51.342;6.338;2022-09-09T03:56:03;16.90;99.90
26517;DHT22;14190;51.342;6.338;2022-09-09T03:58:34;16.90;99.90
26517;DHT22;14190;51.342;6.338;2022-09-09T04:01:06;16.90;99.90
26517;DHT22;14190;51.342;6.338;2022-09-09T04:03:37;16.90;99.90
26517;DHT22;14190;51.342;6.338;2022-09-09T04:06:06;16.90;99.90
26517;DHT22;14190;51.342;6.338;2022-09-09T04:08:35;17.00;99.90
26517;DHT22;14190;51.342;6.338;2022-09-09T04:11:05;17.00;99.90
26517;DHT22;14190;51.342;6.338;2022-09-09T04:13:35;17.00;99.90
26517;DHT22;14190;51.342;6.338;2022-09-09T04:16:09;17.00;99.90
26517;DHT22;14190;51.342;6.338;2022-09-09T04:18:39;16.90;99.90
26517;DHT22;14190;51.342;6.338;2022-09-09T04:21:08;17.00;99.90
26517;DHT22;14190;51.342;6.338;2022-09-09T04:23:38;17.00;99.90
26517;DHT22;14190;51.342;6.338;2022-09-09T04:26:07;17.00;99.90
26517;DHT22;14190;51.342;6.338;2022-09-09T04:28:36;17.10;99.90
26517;DHT22;14190;51.342;6.338;2022-09-09T04:31:08;17.10;99.90
26517;DHT22;14190;51.342;6.338;2022-09-09T04:33:37;17.10;99.90
26517;DHT22;14190;51.342;6.338;2022-09-09T04:36:07;17.10;99.90
26517;DHT22;14190;51.342;6.338;2022-09-09T04:38:36;17.10;99.90
26517;DHT22;14190;51.342;6.338;2022-09-09T04:41:05;17.10;99.90
26517;DHT22;14190;51.342;6.338;2022-09-09T04:43:35;17.20;99.90
26517;DHT22;14190;51.342;6.338;2022-09-09T04:46:05;17.20;99.90
26517;DHT22;14190;51.342;6.338;2022-09-09T04:48:34;17.20;99.90
26517;DHT22;14190;51.342;6.338;2022-09-09T04:51:05;17.20;99.90
26517;DHT22;14190;51.342;6.338;2022-09-09T04:53:34;17.20;99.90
26517;DHT22;14190;51.342;6.338;2022-09-09T04:56:10;17.20;99.90
26517;DHT22;14190;51.342;6.338;2022-09-09T04:58:41;17.30;99.90
26517;DHT22;14190;51.342;6.338;2022-09-09T05:01:13;17.30;99.90
26517;DHT22;14190;51.342;6.338;2022-09-09T05:03:44;17.20;99.90
26517;DHT22;14190;51.342;6.338;2022-09-09T05:06:18;17.30;99.90
26517;DHT22;14190;51.342;6.338;2022-09-09T05:08:48;17.30;99.90
26517;DHT22;14190;51.342;6.338;2022-09-09T05:11:19;17.30;99.90
26517;DHT22;14190;51.342;6.338;2022-09-09T05:13:51;17.30;99.90
26517;DHT22;14190;51.342;6.338;2022-09-09T05:16:20;17.30;99.90
26517;DHT22;14190;51.342;6.338;2022-09-09T05:18:50;17.30;99.90
26517;DHT22;14190;51.342;6.338;2022-09-09T05:21:20;17.40;99.90
26517;DHT22;14190;51.342;6.338;2022-09-09T05:23:49;17.40;99.90
26517;DHT22;14190;51.342;6.338;2022-09-09T05:26:20;17.40;99.90
26517;DHT22;14190;51.342;6.338;2022-09-09T05:28:50;17.40;99.90
26517;DHT22;14190;51.342;6.338;2022-09-09T05:31:19;17.40;99.90
26517;DHT22;14190;51.342;6.338;2022-09-09T05:33:49;17.40;99.90
26517;DHT22;14190;51.342;6.338;2022-09-09T05:36:19;17.40;99.90
26517;DHT22;14190;51.342;6.338;2022-09-09T05:38:49;17.40;99.90
26517;DHT22;14190;51.342;6.338;2022-09-09T05:41:19;17.40;99.90
26517;DHT22;14190;51.342;6.338;2022-09-09T05:43:50;17.50;99.90
26517;DHT22;14190;51.342;6.338;2022-09-09T05:46:21;17.50;99.90
26517;DHT22;14190;51.342;6.338;2022-09-09T05:48:51;17.50;99.90
26517;DHT22;14190;51.342;6.338;2022-09-09T05:51:23;17.60;99.90
26517;DHT22;14190;51.342;6.338;2022-09-09T05:53:54;17.50;99.90
26517;DHT22;14190;51.342;6.338;2022-09-09T05:56:30;17.60;99.90
26517;DHT22;14190;51.342;6.338;2022-09-09T05:59:00;17.70;99.90
26517;DHT22;14190;51.342;6.338;2022-09-09T06:01:31;17.70;99.90
26517;DHT22;14190;51.342;6.338;2022-09-09T06:04:01;17.70;99.90
26517;DHT22;14190;51.342;6.338;2022-09-09T06:06:32;17.70;99.90
26517;DHT22;14190;51.342;6.338;2022-09-09T06:09:05;17.70;99.90
26517;DHT22;14190;51.342;6.338;2022-09-09T06:11:38;17.70;99.90
26517;DHT22;14190;51.342;6.338;2022-09-09T06:14:07;17.70;99.90
26517;DHT22;14190;51.342;6.338;2022-09-09T06:16:37;17.80;99.90
26517;DHT22;14190;51.342;6.338;2022-09-09T06:19:08;17.80;99.90
26517;DHT22;14190;51.342;6.338;2022-09-09T06:21:36;17.80;99.90
26517;DHT22;14190;51.342;6.338;2022-09-09T06:24:07;17.80;99.90
26517;DHT22;14190;51.342;6.338;2022-09-09T06:26:37;17.80;99.90
26517;DHT22;14190;51.342;6.338;2022-09-09T06:29:08;17.90;99.90
26517;DHT22;14190;51.342;6.338;2022-09-09T06:31:37;17.90;99.90
26517;DHT22;14190;51.342;6.338;2022-09-09T06:34:08;17.90;99.90
26517;DHT22;14190;51.342;6.338;2022-09-09T06:36:39;17.90;99.90
26517;DHT22;14190;51.342;6.338;2022-09-09T06:39:08;18.00;99.90
26517;DHT22;14190;51.342;6.338;2022-09-09T06:41:39;18.00;99.90
26517;DHT22;14190;51.342;6.338;2022-09-09T06:44:10;18.00;99.90
26517;DHT22;14190;51.342;6.338;2022-09-09T06:46:43;18.10;99.90
26517;DHT22;14190;51.342;6.338;2022-09-09T06:49:14;18.10;99.90
26517;DHT22;14190;51.342;6.338;2022-09-09T06:51:42;18.20;99.90
26517;DHT22;14190;51.342;6.338;2022-09-09T06:54:13;18.20;99.90
26517;DHT22;14190;51.342;6.338;2022-09-09T06:56:43;18.20;99.90
26517;DHT22;14190;51.342;6.338;2022-09-09T06:59:15;18.20;99.90
26517;DHT22;14190;51.342;6.338;2022-09-09T07:01:45;18.30;99.90
26517;DHT22;14190;51.342;6.338;2022-09-09T07:04:16;18.50;99.90
26517;DHT22;14190;51.342;6.338;2022-09-09T07:06:45;18.60;99.90
26517;DHT22;14190;51.342;6.338;2022-09-09T07:09:16;18.70;99.90
26517;DHT22;14190;51.342;6.338;2022-09-09T07:11:48;18.80;99.90
26517;DHT22;14190;51.342;6.338;2022-09-09T07:14:17;18.90;99.90
26517;DHT22;14190;51.342;6.338;2022-09-09T07:16:47;18.90;99.90
26517;DHT22;14190;51.342;6.338;2022-09-09T07:19:17;19.00;99.90
26517;DHT22;14190;51.342;6.338;2022-09-09T07:21:47;19.00;99.90
26517;DHT22;14190;51.342;6.338;2022-09-09T07:24:18;19.00;99.90
26517;DHT22;14190;51.342;6.338;2022-09-09T07:26:47;19.00;99.90
26517;DHT22;14190;51.342;6.338;2022-09-09T07:29:16;19.10;99.90
26517;DHT22;14190;51.342;6.338;2022-09-09T07:31:45;19.10;99.90
26517;DHT22;14190;51.342;6.338;2022-09-09T07:34:15;19.20;99.90
26517;DHT22;14190;51.342;6.338;2022-09-09T07:36:45;19.20;99.90
26517;DHT22;14190;51.342;6.338;2022-09-09T07:39:14;19.20;99.90
26517;DHT22;14190;51.342;6.338;2022-09-09T07:41:47;19.30;99.90
26517;DHT22;14190;51.342;6.338;2022-09-09T07:44:19;19.40;99.90
26517;DHT22;14190;51.342;6.338;2022-09-09T07:46:54;19.30;99.90
26517;DHT22;14190;51.342;6.338;2022-09-09T07:49:24;19.40;99.90
26517;DHT22;14190;51.342;6.338;2022-09-09T07:51:53;19.60;99.90
26517;DHT22;14190;51.342;6.338;2022-09-09T07:54:22;19.60;99.90
26517;DHT22;14190;51.342;6.338;2022-09-09T07:56:51;19.70;99.90
26517;DHT22;14190;51.342;6.338;2022-09-09T07:59:22;19.80;99.90
26517;DHT22;14190;51.342;6.338;2022-09-09T08:01:52;20.00;99.90
26517;DHT22;14190;51.342;6.338;2022-09-09T08:04:24;20.20;99.90
26517;DHT22;14190;51.342;6.338;2022-09-09T08:06:55;20.30;99.90
26517;DHT22;14190;51.342;6.338;2022-09-09T08:09:26;20.30;99.90
26517;DHT22;14190;51.342;6.338;2022-09-09T08:11:58;20.60;99.90
26517;DHT22;14190;51.342;6.338;2022-09-09T08:14:27;20.90;99.90
26517;DHT22;14190;51.342;6.338;2022-09-09T08:16:57;20.90;99.90
26517;DHT22;14190;51.342;6.338;2022-09-09T08:19:28;20.90;99.90
26517;DHT22;14190;51.342;6.338;2022-09-09T08:22:01;20.80;99.90
26517;DHT22;14190;51.342;6.338;2022-09-09T08:24:31;20.80;99.90
26517;DHT22;14190;51.342;6.338;2022-09-09T08:27:00;20.80;99.90
26517;DHT22;14190;51.342;6.338;2022-09-09T08:29:29;20.70;99.90
26517;DHT22;14190;51.342;6.338;2022-09-09T08:31:58;20.70;99.90
26517;DHT22;14190;51.342;6.338;2022-09-09T08:34:28;21.00;99.90
26517;DHT22;14190;51.342;6.338;2022-09-09T08:37:00;21.10;99.90
26517;DHT22;14190;51.342;6.338;2022-09-09T08:39:30;21.10;99.90
26517;DHT22;14190;51.342;6.338;2022-09-09T08:49:49;20.80;99.90
26517;DHT22;14190;51.342;6.338;2022-09-09T08:52:31;20.70;99.90
26517;DHT22;14190;51.342;6.338;2022-09-09T08:55:05;20.60;99.90
26517;DHT22;14190;51.342;6.338;2022-09-09T08:57:33;20.50;99.90
26517;DHT22;14190;51.342;6.338;2022-09-09T09:00:02;20.40;99.90
26517;DHT22;14190;51.342;6.338;2022-09-09T09:02:34;20.40;99.90
26517;DHT22;14190;51.342;6.338;2022-09-09T09:10:15;20.60;99.90
26517;DHT22;14190;51.342;6.338;2022-09-09T09:12:43;20.60;99.90
26517;DHT22;14190;51.342;6.338;2022-09-09T09:17:47;20.80;99.90
26517;DHT22;14190;51.342;6.338;2022-09-09T09:20:18;21.00;99.90
26517;DHT22;14190;51.342;6.338;2022-09-09T09:22:48;21.30;99.90
26517;DHT22;14190;51.342;6.338;2022-09-09T09:25:19;21.50;99.90
26517;DHT22;14190;51.342;6.338;2022-09-09T09:27:58;21.90;99.90
26517;DHT22;14190;51.342;6.338;2022-09-09T09:30:34;22.10;99.90
26517;DHT22;14190;51.342;6.338;2022-09-09T09:35:38;22.40;99.90
26517;DHT22;14190;51.342;6.338;2022-09-09T09:38:16;22.30;99.90
26517;DHT22;14190;51.342;6.338;2022-09-09T09:40:48;22.20;99.90
26517;DHT22;14190;51.342;6.338;2022-09-09T09:43:16;22.20;99.90
26517;DHT22;14190;51.342;6.338;2022-09-09T09:45:44;22.00;99.90
26517;DHT22;14190;51.342;6.338;2022-09-09T09:48:13;21.80;99.90
26517;DHT22;14190;51.342;6.338;2022-09-09T09:50:48;21.70;99.90
26517;DHT22;14190;51.342;6.338;2022-09-09T09:53:21;21.60;99.90
26517;DHT22;14190;51.342;6.338;2022-09-09T09:55:58;21.50;99.90
26517;DHT22;14190;51.342;6.338;2022-09-09T09:59:18;21.30;99.90
26517;DHT22;14190;51.342;6.338;2022-09-09T10:01:02;21.20;99.90
26517;DHT22;14190;51.342;6.338;2022-09-09T10:03:32;21.10;99.90
26517;DHT22;14190;51.342;6.338;2022-09-09T10:06:03;21.00;99.90
26517;DHT22;14190;51.342;6.338;2022-09-09T10:08:43;20.90;99.90
26517;DHT22;14190;51.342;6.338;2022-09-09T10:13:54;20.80;99.90
26517;DHT22;14190;51.342;6.338;2022-09-09T10:19:04;20.70;99.90
26517;DHT22;14190;51.342;6.338;2022-09-09T10:24:22;20.70;99.90
26517;DHT22;14190;51.342;6.338;2022-09-09T10:29:35;21.00;99.90
26517;DHT22;14190;51.342;6.338;2022-09-09T10:32:06;21.10;99.90
26517;DHT22;14190;51.342;6.338;2022-09-09T10:40:02;21.30;99.90
26517;DHT22;14190;51.342;6.338;2022-09-09T10:42:27;21.20;99.90
26517;DHT22;14190;51.342;6.338;2022-09-09T10:45:02;21.20;99.90
26517;DHT22;14190;51.342;6.338;2022-09-09T10:55:35;21.40;99.90
26517;DHT22;14190;51.342;6.338;2022-09-09T10:58:03;21.40;99.90
26517;DHT22;14190;51.342;6.338;2022-09-09T11:00:38;21.50;99.90
26517;DHT22;14190;51.342;6.338;2022-09-09T11:03:17;21.50;99.90
26517;DHT22;14190;51.342;6.338;2022-09-09T11:05:45;21.40;99.90
26517;DHT22;14190;51.342;6.338;2022-09-09T11:08:23;21.40;99.90
26517;DHT22;14190;51.342;6.338;2022-09-09T11:10:58;21.50;99.90
26517;DHT22;14190;51.342;6.338;2022-09-09T11:14:29;21.60;99.90
26517;DHT22;14190;51.342;6.338;2022-09-09T11:16:15;21.60;99.90
26517;DHT22;14190;51.342;6.338;2022-09-09T11:18:38;21.50;99.90
26517;DHT22;14190;51.342;6.338;2022-09-09T11:21:14;21.50;99.90
26517;DHT22;14190;51.342;6.338;2022-09-09T11:23:40;21.60;99.90
26517;DHT22;14190;51.342;6.338;2022-09-09T11:26:11;21.90;99.90
26517;DHT22;14190;51.342;6.338;2022-09-09T11:31:15;22.20;99.90
26517;DHT22;14190;51.342;6.338;2022-09-09T11:33:58;22.20;99.90
26517;DHT22;14190;51.342;6.338;2022-09-09T11:36:40;22.20;99.90
26517;DHT22;14190;51.342;6.338;2022-09-09T11:39:28;22.20;99.90
26517;DHT22;14190;51.342;6.338;2022-09-09T11:41:52;22.20;99.90
26517;DHT22;14190;51.342;6.338;2022-09-09T11:44:27;22.20;99.90
26517;DHT22;14190;51.342;6.338;2022-09-09T11:46:54;22.10;99.90
26517;DHT22;14190;51.342;6.338;2022-09-09T11:49:27;22.00;99.90
26517;DHT22;14190;51.342;6.338;2022-09-09T11:51:56;21.90;99.90
26517;DHT22;14190;51.342;6.338;2022-09-09T11:54:29;21.80;99.90
26517;DHT22;14190;51.342;6.338;2022-09-09T11:56:58;21.60;99.90
26517;DHT22;14190;51.342;6.338;2022-09-09T11:59:28;21.50;99.90
26517;DHT22;14190;51.342;6.338;2022-09-09T12:02:00;21.50;99.90
26517;DHT22;14190;51.342;6.338;2022-09-09T12:04:31;21.20;99.90
26517;DHT22;14190;51.342;6.338;2022-09-09T12:07:02;20.90;99.90
26517;DHT22;14190;51.342;6.338;2022-09-09T12:09:32;20.80;99.90
26517;DHT22;14190;51.342;6.338;2022-09-09T12:12:17;20.60;99.90
26517;DHT22;14190;51.342;6.338;2022-09-09T12:14:36;20.50;99.90
26517;DHT22;14190;51.342;6.338;2022-09-09T12:17:09;20.50;99.90
26517;DHT22;14190;51.342;6.338;2022-09-09T12:19:38;20.40;99.90
26517;DHT22;14190;51.342;6.338;2022-09-09T12:22:07;20.40;99.90
26517;DHT22;14190;51.342;6.338;2022-09-09T12:24:43;20.50;99.90
26517;DHT22;14190;51.342;6.338;2022-09-09T12:27:17;20.60;99.90
26517;DHT22;14190;51.342;6.338;2022-09-09T12:29:44;20.60;99.90
26517;DHT22;14190;51.342;6.338;2022-09-09T12:32:15;20.70;99.90
26517;DHT22;14190;51.342;6.338;2022-09-09T12:34:53;20.90;99.90
26517;DHT22;14190;51.342;6.338;2022-09-09T12:39:59;21.10;99.90
26517;DHT22;14190;51.342;6.338;2022-09-09T12:42:30;21.10;99.90
26517;DHT22;14190;51.342;6.338;2022-09-09T12:45:01;21.10;99.90
26517;DHT22;14190;51.342;6.338;2022-09-09T12:47:34;21.10;99.90
26517;DHT22;14190;51.342;6.338;2022-09-09T12:50:01;21.20;99.90
26517;DHT22;14190;51.342;6.338;2022-09-09T12:52:33;21.20;99.90
26517;DHT22;14190;51.342;6.338;2022-09-09T12:55:04;21.30;99.90
26517;DHT22;14190;51.342;6.338;2022-09-09T12:57:34;21.30;99.90
26517;DHT22;14190;51.342;6.338;2022-09-09T13:00:14;21.40;99.90
26517;DHT22;14190;51.342;6.338;2022-09-09T13:02:48;21.60;99.90
26517;DHT22;14190;51.342;6.338;2022-09-09T13:05:21;21.60;99.90
26517;DHT22;14190;51.342;6.338;2022-09-09T13:07:49;21.60;99.90
26517;DHT22;14190;51.342;6.338;2022-09-09T13:10:23;21.60;99.90
26517;DHT22;14190;51.342;6.338;2022-09-09T13:12:52;21.60;99.90
26517;DHT22;14190;51.342;6.338;2022-09-09T13:15:24;21.60;99.90
26517;DHT22;14190;51.342;6.338;2022-09-09T13:17:56;21.80;99.90
26517;DHT22;14190;51.342;6.338;2022-09-09T13:20:25;21.80;99.90
26517;DHT22;14190;51.342;6.338;2022-09-09T13:22:55;21.90;99.90
26517;DHT22;14190;51.342;6.338;2022-09-09T13:25:26;22.00;99.90
26517;DHT22;14190;51.342;6.338;2022-09-09T13:28:18;22.00;99.90
26517;DHT22;14190;51.342;6.338;2022-09-09T13:30:32;21.90;99.90
26517;DHT22;14190;51.342;6.338;2022-09-09T13:35:57;21.90;99.90
26517;DHT22;14190;51.342;6.338;2022-09-09T13:38:22;21.80;99.90
26517;DHT22;14190;51.342;6.338;2022-09-09T13:40:53;21.80;99.90
26517;DHT22;14190;51.342;6.338;2022-09-09T13:43:23;21.70;99.90
26517;DHT22;14190;51.342;6.338;2022-09-09T13:45:53;21.40;99.90
26517;DHT22;14190;51.342;6.338;2022-09-09T13:48:24;21.10;99.90
26517;DHT22;14190;51.342;6.338;2022-09-09T13:50:59;20.80;99.90
26517;DHT22;14190;51.342;6.338;2022-09-09T13:53:24;20.60;99.90
26517;DHT22;14190;51.342;6.338;2022-09-09T13:55:53;20.50;99.90
26517;DHT22;14190;51.342;6.338;2022-09-09T13:58:22;20.40;99.90
26517;DHT22;14190;51.342;6.338;2022-09-09T14:00:53;20.20;99.90
26517;DHT22;14190;51.342;6.338;2022-09-09T14:03:27;20.00;99.90
26517;DHT22;14190;51.342;6.338;2022-09-09T14:05:56;19.80;99.90
26517;DHT22;14190;51.342;6.338;2022-09-09T14:08:25;19.70;99.90
26517;DHT22;14190;51.342;6.338;2022-09-09T14:10:56;19.60;99.90
26517;DHT22;14190;51.342;6.338;2022-09-09T14:13:26;19.60;99.90
26517;DHT22;14190;51.342;6.338;2022-09-09T14:15:54;19.50;99.90
26517;DHT22;14190;51.342;6.338;2022-09-09T14:18:24;19.50;99.90
26517;DHT22;14190;51.342;6.338;2022-09-09T14:20:53;19.50;99.90
26517;DHT22;14190;51.342;6.338;2022-09-09T14:23:21;19.40;99.90
26517;DHT22;14190;51.342;6.338;2022-09-09T14:25:50;19.40;99.90
26517;DHT22;14190;51.342;6.338;2022-09-09T14:28:19;19.40;99.90
26517;DHT22;14190;51.342;6.338;2022-09-09T14:30:48;19.40;99.90
26517;DHT22;14190;51.342;6.338;2022-09-09T14:33:17;19.30;99.90
26517;DHT22;14190;51.342;6.338;2022-09-09T14:35:45;19.40;99.90
26517;DHT22;14190;51.342;6.338;2022-09-09T14:38:14;19.40;99.90
26517;DHT22;14190;51.342;6.338;2022-09-09T14:40:44;19.30;99.90
26517;DHT22;14190;51.342;6.338;2022-09-09T14:43:14;19.30;99.90
26517;DHT22;14190;51.342;6.338;2022-09-09T14:45:43;19.30;99.90
26517;DHT22;14190;51.342;6.338;2022-09-09T14:48:12;19.30;99.90
26517;DHT22;14190;51.342;6.338;2022-09-09T14:50:40;19.30;99.90
26517;DHT22;14190;51.342;6.338;2022-09-09T14:53:09;19.30;99.90
26517;DHT22;14190;51.342;6.338;2022-09-09T14:55:38;19.40;99.90
26517;DHT22;14190;51.342;6.338;2022-09-09T14:58:06;19.50;99.90
26517;DHT22;14190;51.342;6.338;2022-09-09T15:00:35;19.60;99.90
26517;DHT22;14190;51.342;6.338;2022-09-09T15:03:04;19.70;99.90
26517;DHT22;14190;51.342;6.338;2022-09-09T15:05:33;19.70;99.90
26517;DHT22;14190;51.342;6.338;2022-09-09T15:08:04;19.80;99.90
26517;DHT22;14190;51.342;6.338;2022-09-09T15:10:33;19.90;99.90
26517;DHT22;14190;51.342;6.338;2022-09-09T15:13:02;20.00;99.90
26517;DHT22;14190;51.342;6.338;2022-09-09T15:15:30;20.10;99.90
26517;DHT22;14190;51.342;6.338;2022-09-09T15:17:59;20.30;99.90
26517;DHT22;14190;51.342;6.338;2022-09-09T15:20:28;20.30;99.90
26517;DHT22;14190;51.342;6.338;2022-09-09T15:22:57;20.30;99.90
26517;DHT22;14190;51.342;6.338;2022-09-09T15:25:25;20.40;99.90
26517;DHT22;14190;51.342;6.338;2022-09-09T15:27:54;20.40;99.90
26517;DHT22;14190;51.342;6.338;2022-09-09T15:30:24;20.40;99.90
26517;DHT22;14190;51.342;6.338;2022-09-09T15:32:53;20.50;99.90
26517;DHT22;14190;51.342;6.338;2022-09-09T15:35:22;20.50;99.90
26517;DHT22;14190;51.342;6.338;2022-09-09T15:37:51;20.60;99.90
26517;DHT22;14190;51.342;6.338;2022-09-09T15:40:19;20.60;99.90
26517;DHT22;14190;51.342;6.338;2022-09-09T15:42:48;20.60;99.90
26517;DHT22;14190;51.342;6.338;2022-09-09T15:45:17;20.70;99.90
26517;DHT22;14190;51.342;6.338;2022-09-09T15:47:47;20.70;99.90
26517;DHT22;14190;51.342;6.338;2022-09-09T15:50:16;20.70;99.90
26517;DHT22;14190;51.342;6.338;2022-09-09T15:52:45;20.70;99.90
26517;DHT22;14190;51.342;6.338;2022-09-09T15:55:14;20.70;99.90
26517;DHT22;14190;51.342;6.338;2022-09-09T15:57:42;20.80;99.90
26517;DHT22;14190;51.342;6.338;2022-09-09T16:00:12;20.90;99.90
26517;DHT22;14190;51.342;6.338;2022-09-09T16:02:41;20.90;99.90
26517;DHT22;14190;51.342;6.338;2022-09-09T16:05:10;20.90;99.90
26517;DHT22;14190;51.342;6.338;2022-09-09T16:07:40;20.90;99.90
26517;DHT22;14190;51.342;6.338;2022-09-09T16:10:10;20.90;99.90
26517;DHT22;14190;51.342;6.338;2022-09-09T16:12:40;20.90;99.90
26517;DHT22;14190;51.342;6.338;2022-09-09T16:15:09;20.90;99.90
26517;DHT22;14190;51.342;6.338;2022-09-09T16:17:37;20.80;99.90
26517;DHT22;14190;51.342;6.338;2022-09-09T16:20:06;20.90;99.90
26517;DHT22;14190;51.342;6.338;2022-09-09T16:22:36;20.80;99.90
26517;DHT22;14190;51.342;6.338;2022-09-09T16:25:05;20.90;99.90
26517;DHT22;14190;51.342;6.338;2022-09-09T16:27:33;20.90;99.90
26517;DHT22;14190;51.342;6.338;2022-09-09T16:30:02;21.00;99.90
26517;DHT22;14190;51.342;6.338;2022-09-09T16:32:31;20.90;99.90
26517;DHT22;14190;51.342;6.338;2022-09-09T16:35:00;20.90;99.90
26517;DHT22;14190;51.342;6.338;2022-09-09T16:37:29;20.90;99.90
26517;DHT22;14190;51.342;6.338;2022-09-09T16:39:58;20.90;99.90
26517;DHT22;14190;51.342;6.338;2022-09-09T16:42:26;20.90;99.90
26517;DHT22;14190;51.342;6.338;2022-09-09T16:44:55;20.90;99.90
26517;DHT22;14190;51.342;6.338;2022-09-09T16:47:24;20.90;99.90
26517;DHT22;14190;51.342;6.338;2022-09-09T16:49:53;20.90;99.90
26517;DHT22;14190;51.342;6.338;2022-09-09T16:52:21;20.90;99.90
26517;DHT22;14190;51.342;6.338;2022-09-09T16:54:50;21.00;99.90
26517;DHT22;14190;51.342;6.338;2022-09-09T16:57:19;21.00;99.90
26517;DHT22;14190;51.342;6.338;2022-09-09T16:59:47;20.90;99.90
26517;DHT22;14190;51.342;6.338;2022-09-09T17:02:16;20.80;99.90